This is the latest recevied weather packets stored in our database for station/object G4GVZ-1. If no packets are shown the sender has not sent any weather packets the latest 10 day(s).
| Time | Temp. | Humidity | Pressure | Rain* | Wind** | Luminosity | Snow |
|---|---|---|---|---|---|---|---|
| 1777713350 | 15.56° C | 68% | 1016.5 hPa | 0 mm | - | - | - |
| 1777712450 | 14.44° C | 73% | 1016.6 hPa | 0 mm | - | - | - |
| 1777711550 | 13.89° C | 75% | 1017 hPa | 0 mm | - | - | - |
| 1777710649 | 13.89° C | 75% | 1017.1 hPa | 0 mm | - | - | - |
| 1777709751 | 13.89° C | 74% | 1017.4 hPa | 0 mm | - | - | - |
| 1777708851 | 14.44° C | 76% | 1017.1 hPa | 0 mm | - | - | - |
| 1777707951 | 13.33° C | 80% | 1017 hPa | 0 mm | - | - | - |
| 1777707050 | 12.22° C | 85% | 1017.1 hPa | 0 mm | - | - | - |
| 1777706150 | 11.67° C | 85% | 1017.2 hPa | 0 mm | - | - | - |
| 1777705250 | 11.67° C | 87% | 1017.1 hPa | 0 mm | - | - | - |
| 1777704351 | 10.56° C | 91% | 1017.2 hPa | 0 mm | - | - | - |
| 1777703451 | 10° C | 91% | 1017.4 hPa | 0 mm | - | - | - |
| 1777702550 | 9.44° C | 92% | 1017.4 hPa | 0 mm | - | - | - |
| 1777701652 | 8.89° C | 92% | 1017.3 hPa | 0 mm | - | - | - |
| 1777700752 | 8.33° C | 91% | 1017.3 hPa | 0 mm | - | - | - |
| 1777699855 | 8.33° C | 90% | 1017.2 hPa | 0 mm | - | - | - |
| 1777698951 | 8.33° C | 91% | 1017.3 hPa | 0 mm | - | - | - |
| 1777698051 | 8.33° C | 93% | 1017.3 hPa | 0 mm | - | - | - |
| 1777697151 | 8.33° C | 91% | 1017.3 hPa | 0 mm | - | - | - |
| 1777696250 | 8.89° C | 91% | 1017.5 hPa | 0 mm | - | - | - |
| 1777695352 | 8.89° C | 91% | 1017.3 hPa | 0 mm | - | - | - |
| 1777694452 | 8.89° C | 89% | 1017.5 hPa | 0 mm | - | - | - |
| 1777693552 | 8.89° C | 89% | 1017.6 hPa | 0 mm | - | - | - |
| 1777692651 | 8.89° C | 89% | 1017.7 hPa | 0 mm | - | - | - |
| 1777691753 | 9.44° C | 88% | 1017.4 hPa | 0 mm | - | - | - |
* Rain latest hour (hover to see other rain measurements)
** Current wind speed in m/s (hover to see current wind gust speed)